Time;durP1;ratioP1;P1;durP2;ratioP2;P2;SDS_P1;SDS_P2;PMS_P1;PMS_P2;Temp;Humidity;BMP_temperature;BMP_pressure;BME280_temperature;BME280_humidity;BME280_pressure;Samples;Min_cycle;Max_cycle;Signal;HPM_P1;HPM_P2
2023/03/27 00:00:55;;;;;;;0.30;0.30;;;6.40;99.90;;;;;;4377266;32;20066;-74
2023/03/27 00:03:22;;;;;;;0.40;0.40;;;6.50;99.90;;;;;;4376916;32;20090;-74
2023/03/27 00:05:58;;;;;;;3.00;1.67;;;6.50;99.90;;;;;;4378194;32;20138;-74
2023/03/27 00:08:25;;;;;;;1.85;1.15;;;6.50;99.90;;;;;;4376636;32;20165;-74
2023/03/27 00:10:51;;;;;;;0.30;0.30;;;6.40;99.90;;;;;;4376164;32;20078;-74
2023/03/27 00:13:17;;;;;;;0.30;0.30;;;6.50;99.90;;;;;;4377045;32;20535;-74
2023/03/27 00:15:43;;;;;;;0.30;0.30;;;6.60;99.90;;;;;;4375831;32;20092;-74
2023/03/27 00:18:08;;;;;;;0.30;0.30;;;6.60;99.90;;;;;;4377257;32;20121;-74
2023/03/27 00:20:36;;;;;;;0.55;0.55;;;6.50;99.90;;;;;;4378761;32;20059;-74
2023/03/27 00:23:07;;;;;;;2.17;1.10;;;6.50;99.90;;;;;;4376968;32;20539;-74
2023/03/27 00:25:34;;;;;;;0.60;0.55;;;6.40;99.90;;;;;;4375450;32;20159;-74
2023/03/27 00:27:59;;;;;;;1.95;1.25;;;6.30;99.90;;;;;;4378166;32;20075;-74
2023/03/27 00:30:27;;;;;;;0.40;0.40;;;6.20;99.90;;;;;;4376678;32;20193;-74
2023/03/27 00:32:54;;;;;;;2.40;0.77;;;6.10;99.90;;;;;;4376781;32;20075;-74
2023/03/27 00:35:22;;;;;;;0.57;0.57;;;6.20;99.90;;;;;;4377319;32;20206;-74
2023/03/27 00:37:47;;;;;;;0.55;0.55;;;6.20;99.90;;;;;;4375084;32;20182;-74
2023/03/27 00:40:16;;;;;;;0.30;0.30;;;6.00;99.90;;;;;;4375308;32;20097;-75
2023/03/27 00:42:43;;;;;;;0.30;0.30;;;5.80;99.90;;;;;;4376724;32;20074;-75
2023/03/27 00:45:16;;;;;;;0.37;0.37;;;5.80;99.90;;;;;;4377756;32;20815;-73
2023/03/27 00:47:43;;;;;;;0.40;0.40;;;5.80;99.90;;;;;;4375945;32;20082;-73
2023/03/27 00:50:12;;;;;;;0.40;0.40;;;5.80;99.90;;;;;;4375736;32;20134;-74
2023/03/27 00:52:41;;;;;;;0.43;0.43;;;5.80;99.90;;;;;;4376574;32;20110;-74
2023/03/27 00:55:13;;;;;;;0.30;0.30;;;5.80;99.90;;;;;;4377068;32;20066;-74
2023/03/27 00:57:41;;;;;;;0.85;0.82;;;5.80;99.90;;;;;;4377902;32;20078;-74
2023/03/27 01:00:11;;;;;;;0.30;0.30;;;5.90;99.90;;;;;;4376900;32;20456;-74
2023/03/27 01:02:40;;;;;;;0.40;0.40;;;5.90;99.90;;;;;;4377023;32;20133;-74
2023/03/27 01:05:08;;;;;;;0.30;0.30;;;6.00;99.90;;;;;;4377281;32;20527;-74
2023/03/27 01:07:34;;;;;;;0.37;0.37;;;5.90;99.90;;;;;;4361818;32;20672;-75
2023/03/27 01:10:00;;;;;;;0.30;0.30;;;5.90;99.90;;;;;;4373338;32;21388;-75
2023/03/27 01:12:37;;;;;;;0.45;0.45;;;5.80;99.90;;;;;;4375756;32;20148;-74
2023/03/27 01:15:31;;;;;;;0.30;0.30;;;5.90;99.90;;;;;;4376325;32;20090;-74
2023/03/27 01:18:19;;;;;;;0.30;0.30;;;5.90;99.90;;;;;;4367262;32;20566;-73
2023/03/27 01:21:07;;;;;;;0.35;0.35;;;5.80;99.90;;;;;;4362949;32;20086;-73
2023/03/27 01:23:54;;;;;;;0.80;0.55;;;5.80;99.90;;;;;;4365497;32;20676;-74
2023/03/27 01:26:47;;;;;;;0.30;0.30;;;5.60;99.90;;;;;;4361241;32;20150;-73
2023/03/27 01:29:40;;;;;;;20.85;0.98;;;5.50;99.90;;;;;;4364504;32;20079;-75
2023/03/27 01:32:34;;;;;;;0.30;0.30;;;5.60;99.90;;;;;;4360065;32;20174;-73
2023/03/27 01:35:40;;;;;;;1.87;0.70;;;5.70;99.90;;;;;;4373772;32;20086;-74
2023/03/27 01:38:27;;;;;;;0.52;0.52;;;5.70;99.90;;;;;;4364626;32;20522;-75
2023/03/27 01:41:08;;;;;;;0.30;0.30;;;5.70;99.90;;;;;;4361019;32;20102;-74
2023/03/27 01:44:02;;;;;;;0.32;0.32;;;5.60;99.90;;;;;;4374986;32;20090;-76
2023/03/27 01:46:34;;;;;;;0.50;0.50;;;5.50;99.90;;;;;;4363132;32;20102;-74
2023/03/27 01:49:09;;;;;;;1.35;1.00;;;5.50;99.90;;;;;;4374980;32;20488;-74
2023/03/27 01:51:38;;;;;;;0.22;0.22;;;5.60;99.90;;;;;;4375694;32;20090;-74
2023/03/27 01:54:22;;;;;;;0.20;0.20;;;5.60;99.90;;;;;;4376223;32;20502;-74
2023/03/27 01:56:54;;;;;;;0.40;0.40;;;5.50;99.90;;;;;;4376465;32;20302;-74
2023/03/27 01:59:24;;;;;;;0.40;0.40;;;5.50;99.90;;;;;;4375046;32;20430;-74
2023/03/27 02:01:57;;;;;;;0.20;0.20;;;5.50;99.90;;;;;;4376744;32;20079;-74
2023/03/27 02:04:32;;;;;;;0.30;0.30;;;5.50;99.90;;;;;;4376242;32;20518;-75
2023/03/27 02:07:01;;;;;;;0.30;0.30;;;5.60;99.90;;;;;;4373240;32;20074;-74
2023/03/27 02:09:34;;;;;;;2.35;0.55;;;5.40;99.90;;;;;;4376507;32;20149;-74
2023/03/27 02:12:11;;;;;;;0.32;0.32;;;5.50;99.90;;;;;;4375277;32;20102;-74
2023/03/27 02:14:42;;;;;;;0.40;0.40;;;5.60;99.90;;;;;;4375124;32;20082;-74
2023/03/27 02:17:19;;;;;;;0.30;0.30;;;5.40;99.90;;;;;;4375145;32;20083;-74
2023/03/27 02:19:53;;;;;;;0.70;0.70;;;5.40;99.90;;;;;;4375626;32;20411;-73
2023/03/27 02:22:19;;;;;;;0.35;0.30;;;5.30;99.90;;;;;;4364086;32;20078;-73
2023/03/27 02:24:45;;;;;;;0.30;0.30;;;5.30;99.90;;;;;;4375526;32;20145;-73
2023/03/27 02:27:22;;;;;;;0.40;0.40;;;5.40;99.90;;;;;;4373866;32;20089;-73
2023/03/27 02:30:00;;;;;;;0.40;0.40;;;5.30;99.90;;;;;;4374356;32;20074;-73
2023/03/27 02:32:52;;;;;;;0.50;0.50;;;5.40;99.90;;;;;;4374534;32;20125;-75
2023/03/27 02:35:23;;;;;;;2.37;0.60;;;5.30;99.90;;;;;;4363971;32;20510;-75
2023/03/27 02:37:58;;;;;;;0.30;0.30;;;5.20;99.90;;;;;;4376679;32;20087;-74
2023/03/27 02:40:52;;;;;;;0.30;0.30;;;5.20;99.90;;;;;;4371929;32;20090;-74
2023/03/27 02:43:36;;;;;;;0.88;0.88;;;5.30;99.90;;;;;;4371851;32;20535;-73
2023/03/27 02:46:09;;;;;;;0.40;0.40;;;5.20;99.90;;;;;;4372642;32;20122;-74
2023/03/27 02:48:39;;;;;;;0.30;0.30;;;5.30;99.90;;;;;;4374398;32;20423;-74
2023/03/27 02:51:08;;;;;;;0.30;0.30;;;5.20;99.90;;;;;;4374514;32;20063;-73
2023/03/27 02:53:40;;;;;;;0.40;0.40;;;5.10;99.90;;;;;;4374708;32;20081;-74
2023/03/27 02:56:09;;;;;;;0.30;0.30;;;5.00;99.90;;;;;;4375246;32;20071;-74
2023/03/27 02:58:43;;;;;;;0.30;0.30;;;4.90;99.90;;;;;;4374721;32;20082;-74
2023/03/27 03:01:12;;;;;;;0.30;0.30;;;4.90;99.90;;;;;;4372249;32;20078;-74
2023/03/27 03:03:43;;;;;;;0.30;0.30;;;4.80;99.90;;;;;;4377599;32;20090;-74
2023/03/27 03:06:09;;;;;;;;;;;4.80;99.90;;;;;;4375645;32;20106;-74
2023/03/27 03:08:37;;;;;;;5.68;0.95;;;4.80;99.90;;;;;;4376136;32;19977;-74
2023/03/27 03:11:06;;;;;;;0.30;0.30;;;4.80;99.90;;;;;;4373916;32;20157;-74
2023/03/27 03:13:31;;;;;;;0.30;0.30;;;4.80;99.90;;;;;;4376319;32;20283;-74
2023/03/27 03:15:57;;;;;;;0.30;0.30;;;4.80;99.90;;;;;;4376674;32;20059;-75
2023/03/27 03:18:23;;;;;;;0.30;0.30;;;4.80;99.90;;;;;;4376665;32;20063;-75
2023/03/27 03:20:52;;;;;;;0.30;0.30;;;4.80;99.90;;;;;;4371200;32;20086;-75
2023/03/27 03:23:20;;;;;;;0.30;0.30;;;4.80;99.90;;;;;;4371055;32;20129;-74
2023/03/27 03:25:51;;;;;;;0.30;0.30;;;4.80;99.90;;;;;;4373742;32;20074;-74
2023/03/27 03:28:17;;;;;;;0.40;0.40;;;4.90;99.90;;;;;;4380067;32;20224;-74
2023/03/27 03:30:46;;;;;;;0.30;0.30;;;4.80;99.90;;;;;;4378472;32;20534;-73
2023/03/27 03:33:13;;;;;;;0.37;0.37;;;4.90;99.90;;;;;;4375054;32;20482;-76
2023/03/27 03:35:39;;;;;;;0.40;0.40;;;4.90;99.90;;;;;;4377863;32;20523;-74
2023/03/27 03:38:05;;;;;;;0.40;0.40;;;4.80;99.90;;;;;;4377369;32;20067;-75
2023/03/27 03:40:30;;;;;;;0.62;0.62;;;4.70;99.90;;;;;;4377759;32;20063;-75
2023/03/27 03:42:56;;;;;;;0.30;0.30;;;4.70;99.90;;;;;;4378260;32;20653;-75
2023/03/27 03:45:22;;;;;;;0.30;0.30;;;4.60;99.90;;;;;;4376906;32;20079;-74
2023/03/27 03:47:47;;;;;;;0.30;0.30;;;4.80;99.90;;;;;;4378840;32;20111;-75
2023/03/27 03:50:15;;;;;;;0.30;0.30;;;4.90;99.90;;;;;;4376962;32;20075;-74
2023/03/27 03:52:42;;;;;;;0.30;0.30;;;4.80;99.90;;;;;;4376676;32;20090;-75
2023/03/27 03:55:10;;;;;;;0.40;0.40;;;4.70;99.90;;;;;;4377477;32;20083;-75
2023/03/27 03:57:38;;;;;;;0.30;0.30;;;4.80;99.90;;;;;;4375208;32;20114;-75
2023/03/27 04:00:10;;;;;;;0.40;0.40;;;4.70;99.90;;;;;;4375957;32;20079;-75
2023/03/27 04:02:37;;;;;;;0.30;0.30;;;4.70;99.90;;;;;;4376720;32;20094;-75
2023/03/27 04:05:03;;;;;;;0.40;0.40;;;4.70;99.90;;;;;;4376700;32;20159;-74
2023/03/27 04:07:30;;;;;;;0.37;0.37;;;4.50;99.90;;;;;;4378043;32;20091;-74
2023/03/27 04:09:58;;;;;;;0.50;0.50;;;4.50;99.90;;;;;;4377346;32;20119;-73
2023/03/27 04:12:25;;;;;;;0.30;0.30;;;4.50;99.90;;;;;;4374323;32;20522;-73
2023/03/27 04:14:50;;;;;;;0.60;0.60;;;4.50;99.90;;;;;;4377384;32;20532;-75
2023/03/27 04:17:17;;;;;;;0.40;0.35;;;4.50;99.90;;;;;;4378615;32;20078;-75
2023/03/27 04:19:45;;;;;;;0.30;0.30;;;4.40;99.90;;;;;;4378798;32;21024;-74
2023/03/27 04:22:11;;;;;;;0.40;0.40;;;4.40;99.90;;;;;;4372095;32;20558;-74
2023/03/27 04:24:37;;;;;;;0.37;0.37;;;4.30;99.90;;;;;;4376190;32;20063;-74
2023/03/27 04:27:04;;;;;;;0.30;0.30;;;4.30;99.90;;;;;;4375488;32;20062;-74
2023/03/27 04:29:30;;;;;;;0.30;0.30;;;4.20;99.90;;;;;;4376919;32;20141;-73
2023/03/27 04:31:56;;;;;;;0.32;0.32;;;3.90;99.90;;;;;;4376364;32;20451;-75
2023/03/27 04:34:23;;;;;;;0.30;0.30;;;3.90;99.90;;;;;;4376153;32;20451;-75
2023/03/27 04:36:50;;;;;;;0.30;0.30;;;4.00;99.90;;;;;;4375566;32;20126;-75
2023/03/27 04:39:16;;;;;;;0.37;0.37;;;4.00;99.90;;;;;;4374889;32;20079;-76
2023/03/27 04:41:48;;;;;;;2.33;0.75;;;4.00;99.90;;;;;;4375059;32;20134;-76
2023/03/27 04:44:16;;;;;;;0.30;0.30;;;3.90;99.90;;;;;;4375023;32;20098;-76
2023/03/27 04:46:43;;;;;;;0.30;0.30;;;3.90;99.90;;;;;;4373931;32;20490;-76
2023/03/27 04:49:08;;;;;;;0.50;0.50;;;3.90;99.90;;;;;;4378049;32;20507;-76
2023/03/27 04:51:34;;;;;;;0.30;0.30;;;3.80;99.90;;;;;;4376441;32;20149;-75
2023/03/27 04:54:03;;;;;;;0.30;0.30;;;3.80;99.90;;;;;;4375861;32;20102;-75
2023/03/27 04:56:29;;;;;;;0.30;0.30;;;3.70;99.90;;;;;;4375104;32;20153;-75
2023/03/27 04:58:55;;;;;;;0.30;0.30;;;3.60;99.90;;;;;;4374413;32;20078;-75
2023/03/27 05:01:21;;;;;;;4.50;1.45;;;3.60;99.90;;;;;;4370868;32;20538;-76
2023/03/27 05:03:48;;;;;;;0.75;0.73;;;3.60;99.90;;;;;;4377186;32;20157;-75
2023/03/27 05:06:14;;;;;;;1.08;1.05;;;3.70;99.90;;;;;;4374765;32;20311;-75
2023/03/27 05:08:39;;;;;;;0.30;0.30;;;3.70;99.90;;;;;;4374233;32;20553;-76
2023/03/27 05:11:06;;;;;;;0.40;0.40;;;3.60;99.90;;;;;;4369862;32;20106;-76
2023/03/27 05:13:32;;;;;;;2.92;0.88;;;3.50;99.90;;;;;;4370762;32;20083;-76
2023/03/27 05:15:57;;;;;;;0.30;0.30;;;3.60;99.90;;;;;;4376669;32;20644;-76
2023/03/27 05:18:23;;;;;;;0.30;0.30;;;3.60;99.90;;;;;;4364656;32;20526;-76
2023/03/27 05:20:49;;;;;;;0.40;0.40;;;3.50;99.90;;;;;;4369221;32;20070;-76
2023/03/27 05:23:15;;;;;;;0.40;0.40;;;3.40;99.90;;;;;;4373525;32;20094;-76
2023/03/27 05:25:44;;;;;;;0.40;0.40;;;3.30;99.90;;;;;;4369286;32;20538;-76
2023/03/27 05:28:09;;;;;;;0.30;0.30;;;3.30;99.90;;;;;;4365349;32;20075;-76
2023/03/27 05:30:36;;;;;;;0.40;0.40;;;3.30;99.90;;;;;;4360539;32;20098;-77
2023/03/27 05:33:02;;;;;;;0.30;0.30;;;3.30;99.90;;;;;;4360024;32;20078;-76
2023/03/27 05:35:28;;;;;;;0.40;0.40;;;3.30;99.90;;;;;;4367930;32;20082;-75
2023/03/27 05:37:56;;;;;;;0.40;0.40;;;3.30;99.90;;;;;;4368860;32;20507;-75
2023/03/27 05:40:24;;;;;;;0.30;0.30;;;3.40;99.90;;;;;;4359924;32;20098;-76
2023/03/27 05:42:50;;;;;;;0.57;0.57;;;3.20;99.90;;;;;;4367582;32;20086;-77
2023/03/27 05:45:16;;;;;;;0.30;0.30;;;3.20;99.90;;;;;;4355924;32;20546;-75
2023/03/27 05:47:52;;;;;;;0.40;0.40;;;3.40;99.90;;;;;;4357989;32;20070;-75
2023/03/27 05:50:19;;;;;;;0.30;0.30;;;3.40;99.90;;;;;;4359834;32;20105;-76
2023/03/27 05:52:45;;;;;;;0.37;0.37;;;3.40;99.90;;;;;;4366560;32;20094;-76
2023/03/27 05:55:13;;;;;;;0.30;0.30;;;3.50;99.90;;;;;;4357138;32;20816;-75
2023/03/27 05:57:40;;;;;;;0.40;0.40;;;3.50;99.90;;;;;;4355116;32;20106;-75
2023/03/27 06:00:10;;;;;;;0.30;0.30;;;3.60;99.90;;;;;;4347711;32;20097;-74
2023/03/27 06:02:37;;;;;;;0.50;0.50;;;3.70;99.90;;;;;;4330075;32;20537;-75
2023/03/27 06:05:09;;;;;;;0.32;0.32;;;3.60;99.90;;;;;;4339143;32;22099;-73
2023/03/27 06:07:37;;;;;;;0.30;0.30;;;3.50;99.90;;;;;;4343911;32;20151;-73
2023/03/27 06:10:06;;;;;;;0.30;0.30;;;3.50;99.90;;;;;;4338057;32;20180;-73
2023/03/27 06:12:32;;;;;;;0.45;0.45;;;3.60;99.90;;;;;;4332638;32;20126;-75
2023/03/27 06:14:58;;;;;;;0.30;0.30;;;3.70;99.90;;;;;;4332825;32;20910;-74
2023/03/27 06:17:23;;;;;;;0.40;0.40;;;3.70;99.90;;;;;;4338403;32;20831;-73
2023/03/27 06:19:49;;;;;;;0.35;0.35;;;3.60;99.90;;;;;;4351214;32;20090;-76
2023/03/27 06:22:14;;;;;;;0.30;0.30;;;3.80;99.90;;;;;;4351797;32;20102;-79
2023/03/27 06:24:41;;;;;;;0.30;0.30;;;3.90;99.90;;;;;;4359716;32;20102;-78
2023/03/27 06:27:08;;;;;;;0.30;0.30;;;4.00;99.90;;;;;;4351830;32;20125;-76
2023/03/27 06:29:33;;;;;;;0.30;0.30;;;4.10;99.90;;;;;;4358426;32;20097;-77
2023/03/27 06:32:01;;;;;;;0.45;0.45;;;4.10;99.90;;;;;;4361163;32;20110;-78
2023/03/27 06:34:28;;;;;;;0.40;0.40;;;4.10;99.90;;;;;;4363626;32;20099;-78
2023/03/27 06:37:02;;;;;;;0.40;0.40;;;4.10;99.90;;;;;;4361657;32;20087;-78
2023/03/27 06:39:29;;;;;;;0.25;0.25;;;4.10;99.90;;;;;;4359989;32;20102;-78
2023/03/27 06:41:57;;;;;;;0.32;0.32;;;4.20;99.90;;;;;;4362911;32;20093;-81
2023/03/27 06:44:22;;;;;;;0.30;0.30;;;4.40;99.90;;;;;;4355933;32;20110;-75
2023/03/27 06:46:48;;;;;;;0.30;0.30;;;4.40;99.90;;;;;;4350068;32;20160;-75
2023/03/27 06:49:15;;;;;;;0.30;0.30;;;4.50;99.90;;;;;;4350727;32;20920;-74
2023/03/27 06:51:40;;;;;;;0.55;0.55;;;4.50;99.90;;;;;;4353478;32;20115;-74
2023/03/27 06:54:06;;;;;;;0.77;0.77;;;4.50;99.90;;;;;;4359102;32;20114;-76
2023/03/27 06:56:31;;;;;;;0.40;0.40;;;4.60;99.90;;;;;;4354972;32;20558;-77
2023/03/27 06:58:57;;;;;;;0.40;0.40;;;4.60;99.90;;;;;;4358353;32;20198;-76
2023/03/27 07:01:22;;;;;;;0.30;0.30;;;4.60;99.90;;;;;;4365668;32;20097;-75
2023/03/27 07:03:48;;;;;;;0.68;0.68;;;4.60;99.90;;;;;;4362668;32;20808;-75
2023/03/27 07:06:15;;;;;;;0.32;0.32;;;4.70;99.90;;;;;;4358283;32;20091;-75
2023/03/27 07:08:40;;;;;;;0.30;0.30;;;4.50;99.90;;;;;;4351297;32;20114;-77
2023/03/27 07:11:06;;;;;;;0.50;0.50;;;4.50;99.90;;;;;;4348452;32;20105;-77
2023/03/27 07:13:34;;;;;;;0.40;0.40;;;4.70;99.90;;;;;;4348778;32;20118;-76
2023/03/27 07:16:01;;;;;;;0.30;0.30;;;4.70;99.90;;;;;;4349851;32;20123;-76
2023/03/27 07:18:27;;;;;;;0.30;0.30;;;4.80;99.90;;;;;;4343711;32;20147;-76
2023/03/27 07:20:53;;;;;;;0.73;0.73;;;4.90;99.90;;;;;;4350370;32;20456;-76
2023/03/27 07:23:18;;;;;;;0.30;0.30;;;4.90;99.90;;;;;;4347167;32;20301;-76
2023/03/27 07:25:44;;;;;;;0.40;0.40;;;4.90;99.90;;;;;;4347295;32;20185;-75
2023/03/27 07:28:13;;;;;;;0.47;0.47;;;4.90;99.90;;;;;;4347923;32;21478;-75
2023/03/27 07:30:40;;;;;;;0.50;0.50;;;5.20;99.90;;;;;;4347339;32;20106;-76
2023/03/27 07:33:08;;;;;;;0.40;0.40;;;5.30;99.90;;;;;;4345338;32;20095;-75
2023/03/27 07:35:34;;;;;;;0.50;0.50;;;5.30;99.90;;;;;;4350926;32;20813;-75
2023/03/27 07:38:01;;;;;;;4.95;0.88;;;5.20;99.90;;;;;;4357550;32;20117;-76
2023/03/27 07:40:27;;;;;;;8.15;0.62;;;5.20;99.90;;;;;;4359092;32;20094;-75
2023/03/27 07:42:53;;;;;;;0.30;0.30;;;5.20;99.90;;;;;;4360871;32;20724;-75
2023/03/27 07:45:21;;;;;;;0.40;0.40;;;5.40;99.90;;;;;;4358675;32;20115;-76
2023/03/27 07:47:46;;;;;;;0.40;0.40;;;5.50;99.90;;;;;;4332990;32;20106;-74
2023/03/27 07:50:15;;;;;;;0.30;0.30;;;5.30;99.90;;;;;;4337327;32;20130;-73
2023/03/27 07:52:43;;;;;;;0.50;0.50;;;5.20;99.90;;;;;;4328434;32;20098;-73
2023/03/27 07:55:11;;;;;;;0.30;0.30;;;5.30;99.90;;;;;;4320791;32;20190;-76
2023/03/27 07:57:44;;;;;;;0.37;0.37;;;5.40;99.90;;;;;;4342447;32;20197;-76
2023/03/27 08:00:11;;;;;;;0.30;0.30;;;5.40;99.90;;;;;;4344990;32;20102;-74
2023/03/27 08:02:38;;;;;;;0.32;0.32;;;5.50;99.90;;;;;;4339096;32;20806;-76
2023/03/27 08:05:06;;;;;;;0.30;0.30;;;5.50;99.90;;;;;;4346067;32;20095;-76
2023/03/27 08:07:32;;;;;;;1.17;0.55;;;5.20;99.90;;;;;;4353228;32;20732;-77
2023/03/27 08:09:57;;;;;;;0.40;0.40;;;5.20;99.90;;;;;;4352849;32;20090;-77
2023/03/27 08:12:24;;;;;;;0.82;0.82;;;5.20;99.90;;;;;;4345092;32;20495;-76
2023/03/27 08:14:49;;;;;;;0.40;0.40;;;5.30;99.90;;;;;;4348194;32;20107;-76
2023/03/27 08:17:15;;;;;;;0.32;0.32;;;5.30;99.90;;;;;;4341187;32;20090;-76
2023/03/27 08:19:41;;;;;;;0.40;0.40;;;5.20;99.90;;;;;;4348902;32;20169;-75
2023/03/27 08:22:07;;;;;;;0.35;0.35;;;5.20;99.90;;;;;;4345674;32;21010;-74
2023/03/27 08:24:33;;;;;;;0.40;0.40;;;5.10;99.90;;;;;;4342143;32;20554;-74
2023/03/27 08:26:58;;;;;;;0.30;0.30;;;5.10;99.90;;;;;;4346773;32;20094;-75
2023/03/27 08:29:24;;;;;;;0.80;0.70;;;5.40;99.90;;;;;;4347073;32;20074;-77
2023/03/27 08:31:49;;;;;;;0.60;0.60;;;5.80;99.90;;;;;;4348443;32;20550;-76
2023/03/27 08:34:16;;;;;;;0.30;0.30;;;5.90;99.90;;;;;;4353409;32;20102;-75
2023/03/27 08:36:41;;;;;;;0.68;0.68;;;5.80;99.90;;;;;;4353589;32;20570;-76
2023/03/27 08:39:07;;;;;;;0.20;0.20;;;5.80;99.90;;;;;;4344276;32;20061;-76
2023/03/27 08:41:38;;;;;;;0.30;0.30;;;5.70;99.90;;;;;;4349328;32;20089;-77
2023/03/27 08:44:11;;;;;;;0.62;0.62;;;5.70;99.90;;;;;;4342449;32;21422;-75
2023/03/27 08:46:50;;;;;;;0.30;0.30;;;6.00;99.90;;;;;;4349703;32;20103;-76
2023/03/27 08:49:17;;;;;;;0.37;0.37;;;6.30;99.90;;;;;;4347170;32;20094;-76
2023/03/27 08:51:51;;;;;;;0.30;0.30;;;6.40;99.90;;;;;;4356897;32;20075;-76
2023/03/27 08:54:34;;;;;;;0.30;0.30;;;6.30;99.90;;;;;;4349591;32;20114;-75
2023/03/27 08:57:01;;;;;;;0.35;0.35;;;6.10;99.90;;;;;;4339162;32;20478;-75
2023/03/27 08:59:30;;;;;;;0.20;0.20;;;6.20;99.90;;;;;;4335970;32;20775;-75
2023/03/27 09:02:09;;;;;;;0.30;0.30;;;6.00;99.90;;;;;;4338006;32;20786;-76
2023/03/27 09:04:47;;;;;;;0.30;0.30;;;6.10;99.90;;;;;;4334864;32;20653;-76
2023/03/27 09:07:27;;;;;;;1.95;1.20;;;6.10;99.90;;;;;;4341708;32;20103;-75
2023/03/27 09:10:04;;;;;;;0.40;0.40;;;5.90;99.90;;;;;;4347287;32;20386;-75
2023/03/27 09:12:47;;;;;;;0.30;0.30;;;5.80;99.90;;;;;;4340357;32;20090;-75
2023/03/27 09:15:20;;;;;;;0.30;0.30;;;6.00;99.90;;;;;;4344882;32;21551;-72
2023/03/27 09:17:53;;;;;;;0.30;0.30;;;6.10;99.90;;;;;;4344642;32;20118;-73
2023/03/27 09:20:41;;;;;;;0.32;0.32;;;6.00;99.90;;;;;;4337884;32;20086;-75
2023/03/27 09:23:28;;;;;;;0.30;0.30;;;6.10;99.90;;;;;;4315422;32;20113;-77
2023/03/27 09:25:57;;;;;;;0.40;0.40;;;6.50;99.90;;;;;;4315336;32;20783;-75
2023/03/27 09:28:35;;;;;;;0.95;0.93;;;6.40;99.90;;;;;;4329727;32;20156;-74
2023/03/27 09:31:21;;;;;;;3.22;0.93;;;6.70;99.90;;;;;;4327526;32;20496;-74
2023/03/27 09:33:47;;;;;;;1.30;0.98;;;6.90;99.90;;;;;;4326973;32;20090;-75
2023/03/27 09:36:13;;;;;;;0.30;0.30;;;6.90;99.90;;;;;;4340707;32;22502;-74
2023/03/27 09:38:43;;;;;;;0.30;0.30;;;6.60;99.90;;;;;;4349395;32;21884;-74
2023/03/27 09:41:30;;;;;;;7.10;0.80;;;6.70;99.90;;;;;;4346330;32;20102;-75
2023/03/27 09:44:08;;;;;;;0.30;0.30;;;6.70;99.90;;;;;;4338017;32;20098;-76
2023/03/27 09:46:36;;;;;;;0.30;0.30;;;6.60;99.90;;;;;;4335289;32;20943;-76
2023/03/27 09:49:11;;;;;;;0.30;0.30;;;6.60;99.90;;;;;;4339428;32;20122;-76
2023/03/27 09:51:40;;;;;;;0.30;0.30;;;6.60;99.90;;;;;;4345392;32;20079;-76
2023/03/27 09:54:07;;;;;;;0.30;0.30;;;6.90;99.90;;;;;;4342186;32;20217;-76
2023/03/27 09:56:38;;;;;;;0.30;0.30;;;7.20;99.90;;;;;;4337568;32;20860;-76
2023/03/27 09:59:17;;;;;;;0.30;0.30;;;7.30;99.90;;;;;;4344711;32;20082;-75
2023/03/27 10:01:47;;;;;;;0.30;0.30;;;7.70;99.90;;;;;;4345188;32;20499;-75
2023/03/27 10:04:15;;;;;;;;;;;7.30;99.90;;;;;;4347016;32;20531;-76
2023/03/27 10:07:04;;;;;;;0.32;0.32;;;7.20;99.90;;;;;;4342920;32;19966;-74
2023/03/27 10:09:33;;;;;;;0.40;0.40;;;7.40;99.90;;;;;;4339502;32;20404;-76
2023/03/27 10:12:06;;;;;;;0.30;0.30;;;7.30;99.90;;;;;;4338692;32;20459;-76
2023/03/27 10:14:37;;;;;;;0.20;0.20;;;7.10;99.90;;;;;;4330822;32;20585;-77
2023/03/27 10:17:04;;;;;;;0.40;0.40;;;7.00;99.90;;;;;;4316194;32;20164;-76
2023/03/27 10:19:35;;;;;;;0.32;0.32;;;6.90;99.90;;;;;;4331299;32;20122;-75
2023/03/27 10:22:11;;;;;;;0.30;0.30;;;7.30;99.90;;;;;;4340308;32;20226;-76
2023/03/27 10:24:38;;;;;;;0.30;0.30;;;7.70;99.90;;;;;;4341852;32;20102;-76
2023/03/27 10:27:07;;;;;;;0.32;0.32;;;8.10;99.90;;;;;;4356758;32;20727;-75
2023/03/27 10:29:36;;;;;;;0.30;0.30;;;8.20;99.90;;;;;;4353367;32;20127;-75
2023/03/27 10:32:04;;;;;;;0.30;0.30;;;8.20;99.90;;;;;;4353455;32;20143;-75
2023/03/27 10:34:33;;;;;;;0.50;0.50;;;8.30;98.90;;;;;;4354574;32;20814;-75
2023/03/27 10:37:00;;;;;;;0.40;0.40;;;8.40;98.80;;;;;;4357602;32;20312;-73
2023/03/27 10:39:28;;;;;;;0.35;0.35;;;8.40;98.80;;;;;;4359528;32;20090;-72
2023/03/27 10:41:55;;;;;;;0.32;0.32;;;8.50;99.20;;;;;;4359145;32;20069;-74
2023/03/27 10:44:24;;;;;;;0.40;0.40;;;8.10;99.70;;;;;;4351700;32;20078;-74
2023/03/27 10:46:51;;;;;;;0.57;0.57;;;7.80;99.90;;;;;;4350404;32;20213;-75
2023/03/27 10:49:49;;;;;;;0.30;0.30;;;7.60;99.90;;;;;;4346231;32;20200;-74
2023/03/27 10:52:20;;;;;;;0.30;0.30;;;7.70;99.90;;;;;;4327218;32;20135;-75
2023/03/27 10:55:26;;;;;;;0.28;0.28;;;7.80;99.90;;;;;;4320839;32;21008;-74
2023/03/27 10:57:56;;;;;;;0.30;0.30;;;8.10;99.90;;;;;;4314828;32;20097;-74
2023/03/27 11:00:33;;;;;;;0.82;0.82;;;8.10;99.90;;;;;;4342369;32;20095;-73
2023/03/27 11:03:26;;;;;;;0.40;0.40;;;7.90;99.90;;;;;;4344812;32;20369;-73
2023/03/27 11:05:53;;;;;;;0.40;0.40;;;8.10;99.90;;;;;;4344654;32;20527;-75
2023/03/27 11:08:46;;;;;;;0.35;0.35;;;8.10;98.90;;;;;;4334738;32;20126;-75
2023/03/27 11:11:19;;;;;;;0.50;0.50;;;8.20;99.90;;;;;;4323553;32;20114;-74
2023/03/27 11:13:47;;;;;;;0.82;0.82;;;8.00;98.50;;;;;;4340705;32;20086;-75
2023/03/27 11:16:17;;;;;;;0.30;0.30;;;8.10;99.70;;;;;;4343473;32;20546;-75
2023/03/27 11:19:16;;;;;;;0.30;0.30;;;8.00;99.90;;;;;;4340068;32;20082;-73
2023/03/27 11:21:47;;;;;;;0.68;0.68;;;8.20;99.50;;;;;;4338736;32;20098;-77
2023/03/27 11:24:39;;;;;;;0.40;0.40;;;8.20;99.90;;;;;;4331702;32;20202;-78
2023/03/27 11:27:32;;;;;;;0.65;0.40;;;8.30;99.80;;;;;;4328051;32;20505;-77
2023/03/27 11:30:38;;;;;;;0.30;0.30;;;8.30;98.50;;;;;;4322802;32;20143;-76
2023/03/27 11:33:12;;;;;;;0.30;0.30;;;8.10;99.10;;;;;;4353506;32;20101;-76
2023/03/27 11:35:47;;;;;;;0.20;0.20;;;8.00;99.10;;;;;;4349096;32;20090;-77
2023/03/27 11:38:18;;;;;;;0.40;0.40;;;7.90;99.90;;;;;;4359317;32;20954;-75
2023/03/27 11:40:46;;;;;;;0.50;0.50;;;7.90;99.90;;;;;;4353010;32;20211;-77
2023/03/27 11:43:14;;;;;;;0.20;0.20;;;7.60;99.90;;;;;;4322045;32;151882;-76
2023/03/27 11:45:51;;;;;;;0.30;0.30;;;7.40;99.90;;;;;;4342466;32;21553;-76
2023/03/27 11:48:48;;;;;;;0.30;0.30;;;7.60;99.90;;;;;;4345567;32;20095;-75
2023/03/27 11:51:20;;;;;;;0.30;0.30;;;8.30;99.90;;;;;;4342403;32;20111;-76
2023/03/27 11:53:58;;;;;;;0.30;0.30;;;8.60;99.90;;;;;;4347553;32;20242;-76
2023/03/27 11:56:31;;;;;;;0.57;0.43;;;8.40;99.90;;;;;;4357561;32;20115;-76
2023/03/27 11:59:00;;;;;;;0.30;0.30;;;8.70;99.20;;;;;;4356683;32;20082;-76
2023/03/27 12:01:43;;;;;;;0.30;0.30;;;9.30;98.10;;;;;;4379671;32;20436;-76
2023/03/27 12:04:35;;;;;;;0.30;0.30;;;10.20;96.60;;;;;;4359874;32;20106;-75
2023/03/27 12:07:14;;;;;;;0.30;0.30;;;10.70;93.20;;;;;;4360272;32;20098;-79
2023/03/27 12:09:55;;;;;;;0.30;0.30;;;10.70;92.80;;;;;;4373702;32;20263;-76
2023/03/27 12:13:02;;;;;;;0.30;0.30;;;11.10;92.60;;;;;;4364125;32;20083;-75
2023/03/27 12:16:00;;;;;;;0.37;0.37;;;10.80;91.40;;;;;;4344387;32;20121;-76
2023/03/27 12:18:50;;;;;;;0.40;0.40;;;11.20;92.90;;;;;;4351611;32;20094;-75
2023/03/27 12:21:36;;;;;;;2.15;0.85;;;11.40;91.70;;;;;;4353771;32;20090;-75
2023/03/27 12:24:28;;;;;;;0.30;0.30;;;10.80;93.40;;;;;;4360673;32;20161;-76
2023/03/27 12:27:11;;;;;;;0.30;0.30;;;10.70;93.30;;;;;;4352156;32;20087;-76
2023/03/27 12:30:17;;;;;;;1.95;0.80;;;10.70;93.90;;;;;;4360643;32;20098;-76
2023/03/27 12:33:01;;;;;;;0.40;0.40;;;11.10;95.10;;;;;;4326278;32;21571;-75
2023/03/27 12:35:31;;;;;;;0.30;0.30;;;11.20;94.40;;;;;;4356103;32;20121;-76
2023/03/27 12:38:00;;;;;;;0.30;0.30;;;11.20;94.90;;;;;;4362699;32;20066;-75
2023/03/27 12:40:36;;;;;;;0.20;0.20;;;11.80;93.80;;;;;;4369921;32;20141;-76
2023/03/27 12:43:10;;;;;;;0.50;0.50;;;12.60;93.10;;;;;;4366727;32;20160;-76
2023/03/27 12:45:36;;;;;;;0.68;0.68;;;12.60;92.40;;;;;;4368589;32;20106;-76
2023/03/27 12:48:15;;;;;;;0.40;0.40;;;12.40;93.00;;;;;;4367600;32;20409;-76
2023/03/27 12:50:53;;;;;;;0.30;0.30;;;11.90;92.90;;;;;;4368082;32;20130;-74
2023/03/27 12:53:28;;;;;;;0.30;0.30;;;11.50;93.40;;;;;;4370827;32;20573;-76
2023/03/27 12:56:15;;;;;;;2.65;1.15;;;11.10;93.00;;;;;;4366479;32;20073;-76
2023/03/27 12:58:43;;;;;;;0.30;0.30;;;11.50;92.60;;;;;;4354077;32;20098;-76
2023/03/27 13:01:11;;;;;;;0.22;0.22;;;10.60;92.90;;;;;;4362945;32;20095;-75
2023/03/27 13:03:55;;;;;;;0.30;0.30;;;10.70;94.50;;;;;;4366563;32;20217;-76
2023/03/27 13:06:29;;;;;;;0.50;0.50;;;10.50;95.40;;;;;;4372176;32;20444;-75
2023/03/27 13:09:23;;;;;;;0.50;0.50;;;9.90;95.50;;;;;;4360292;32;20153;-75
2023/03/27 13:12:14;;;;;;;0.50;0.50;;;9.20;97.80;;;;;;4357028;32;20082;-74
2023/03/27 13:15:14;;;;;;;0.40;0.40;;;8.90;98.40;;;;;;4353575;32;20093;-75
2023/03/27 13:18:08;;;;;;;0.50;0.50;;;8.80;98.20;;;;;;4370421;32;20078;-74
2023/03/27 13:20:44;;;;;;;0.43;0.30;;;9.60;97.20;;;;;;4356505;32;20114;-73
2023/03/27 13:23:38;;;;;;;7.22;1.30;;;11.10;93.80;;;;;;4370396;32;20697;-75